sensor_id;sensor_type;location;lat;lon;timestamp;temperature;humidity
38263;DHT22;24054;50.128;19.730;2022-09-09T00:00:58;23.60;88.00
38263;DHT22;24054;50.128;19.730;2022-09-09T00:03:29;23.60;88.20
38263;DHT22;24054;50.128;19.730;2022-09-09T00:06:05;23.60;90.00
38263;DHT22;24054;50.128;19.730;2022-09-09T00:08:41;23.70;88.30
38263;DHT22;24054;50.128;19.730;2022-09-09T00:11:12;23.30;76.20
38263;DHT22;24054;50.128;19.730;2022-09-09T00:13:48;23.70;89.30
38263;DHT22;24054;50.128;19.730;2022-09-09T00:16:20;23.60;83.20
38263;DHT22;24054;50.128;19.730;2022-09-09T00:18:56;23.60;88.40
38263;DHT22;24054;50.128;19.730;2022-09-09T00:21:32;23.60;68.40
38263;DHT22;24054;50.128;19.730;2022-09-09T00:24:01;23.60;77.40
38263;DHT22;24054;50.128;19.730;2022-09-09T00:26:38;23.60;68.20
38263;DHT22;24054;50.128;19.730;2022-09-09T00:29:18;23.60;88.00
38263;DHT22;24054;50.128;19.730;2022-09-09T00:31:48;23.60;68.20
38263;DHT22;24054;50.128;19.730;2022-09-09T00:34:18;23.60;68.20
38263;DHT22;24054;50.128;19.730;2022-09-09T00:36:49;23.60;68.20
38263;DHT22;24054;50.128;19.730;2022-09-09T00:39:27;23.60;68.20
38263;DHT22;24054;50.128;19.730;2022-09-09T00:42:06;23.60;68.30
38263;DHT22;24054;50.128;19.730;2022-09-09T00:44:38;23.50;68.20
38263;DHT22;24054;50.128;19.730;2022-09-09T00:47:16;23.60;68.20
38263;DHT22;24054;50.128;19.730;2022-09-09T00:49:54;23.50;89.50
38263;DHT22;24054;50.128;19.730;2022-09-09T00:52:32;23.50;68.20
38263;DHT22;24054;50.128;19.730;2022-09-09T00:55:07;23.60;68.20
38263;DHT22;24054;50.128;19.730;2022-09-09T00:57:38;23.60;68.20
38263;DHT22;24054;50.128;19.730;2022-09-09T01:00:20;23.50;68.20
38263;DHT22;24054;50.128;19.730;2022-09-09T01:02:53;23.60;68.20
38263;DHT22;24054;50.128;19.730;2022-09-09T01:05:30;23.50;68.10
38263;DHT22;24054;50.128;19.730;2022-09-09T01:08:02;23.50;68.10
38263;DHT22;24054;50.128;19.730;2022-09-09T01:10:39;23.50;68.10
38263;DHT22;24054;50.128;19.730;2022-09-09T01:13:13;23.40;88.80
38263;DHT22;24054;50.128;19.730;2022-09-09T01:15:45;23.60;68.20
38263;DHT22;24054;50.128;19.730;2022-09-09T01:18:17;23.50;68.10
38263;DHT22;24054;50.128;19.730;2022-09-09T01:20:52;23.50;68.10
38263;DHT22;24054;50.128;19.730;2022-09-09T01:23:44;23.50;68.10
38263;DHT22;24054;50.128;19.730;2022-09-09T01:26:19;23.50;68.10
38263;DHT22;24054;50.128;19.730;2022-09-09T01:28:49;23.50;68.10
38263;DHT22;24054;50.128;19.730;2022-09-09T01:31:20;23.10;70.60
38263;DHT22;24054;50.128;19.730;2022-09-09T01:33:48;23.50;89.20
38263;DHT22;24054;50.128;19.730;2022-09-09T01:36:20;23.50;68.20
38263;DHT22;24054;50.128;19.730;2022-09-09T01:38:48;23.50;68.10
38263;DHT22;24054;50.128;19.730;2022-09-09T01:41:16;23.50;68.10
38263;DHT22;24054;50.128;19.730;2022-09-09T01:43:43;23.50;68.10
38263;DHT22;24054;50.128;19.730;2022-09-09T01:46:12;23.50;89.40
38263;DHT22;24054;50.128;19.730;2022-09-09T01:48:40;23.40;89.70
38263;DHT22;24054;50.128;19.730;2022-09-09T01:51:08;23.50;68.10
38263;DHT22;24054;50.128;19.730;2022-09-09T01:53:36;23.50;68.10
38263;DHT22;24054;50.128;19.730;2022-09-09T01:56:09;23.50;68.10
38263;DHT22;24054;50.128;19.730;2022-09-09T01:58:56;23.50;68.10
38263;DHT22;24054;50.128;19.730;2022-09-09T02:01:35;23.50;68.10
38263;DHT22;24054;50.128;19.730;2022-09-09T02:04:08;23.50;68.10
38263;DHT22;24054;50.128;19.730;2022-09-09T02:06:41;23.50;68.10
38263;DHT22;24054;50.128;19.730;2022-09-09T02:09:11;23.50;68.10
38263;DHT22;24054;50.128;19.730;2022-09-09T02:11:39;23.20;88.90
38263;DHT22;24054;50.128;19.730;2022-09-09T02:14:11;23.50;68.00
38263;DHT22;24054;50.128;19.730;2022-09-09T02:16:42;23.50;68.00
38263;DHT22;24054;50.128;19.730;2022-09-09T02:19:11;23.50;88.90
38263;DHT22;24054;50.128;19.730;2022-09-09T02:21:42;23.50;89.20
38263;DHT22;24054;50.128;19.730;2022-09-09T02:24:12;23.40;89.10
38263;DHT22;24054;50.128;19.730;2022-09-09T02:26:42;23.50;89.60
38263;DHT22;24054;50.128;19.730;2022-09-09T02:29:15;23.40;89.30
38263;DHT22;24054;50.128;19.730;2022-09-09T02:31:46;23.40;67.40
38263;DHT22;24054;50.128;19.730;2022-09-09T02:34:14;23.40;89.10
38263;DHT22;24054;50.128;19.730;2022-09-09T02:36:44;23.40;67.90
38263;DHT22;24054;50.128;19.730;2022-09-09T02:39:12;23.40;68.00
38263;DHT22;24054;50.128;19.730;2022-09-09T02:41:40;23.40;68.00
38263;DHT22;24054;50.128;19.730;2022-09-09T02:44:10;23.40;68.00
38263;DHT22;24054;50.128;19.730;2022-09-09T02:46:57;23.40;68.00
38263;DHT22;24054;50.128;19.730;2022-09-09T02:49:35;23.40;68.00
38263;DHT22;24054;50.128;19.730;2022-09-09T02:52:06;23.20;88.90
38263;DHT22;24054;50.128;19.730;2022-09-09T02:54:35;23.40;67.90
38263;DHT22;24054;50.128;19.730;2022-09-09T02:57:08;23.40;67.90
38263;DHT22;24054;50.128;19.730;2022-09-09T02:59:36;23.40;67.90
38263;DHT22;24054;50.128;19.730;2022-09-09T03:02:05;23.30;88.80
38263;DHT22;24054;50.128;19.730;2022-09-09T03:04:32;23.40;67.90
38263;DHT22;24054;50.128;19.730;2022-09-09T03:06:59;23.10;88.10
38263;DHT22;24054;50.128;19.730;2022-09-09T03:09:26;23.30;88.40
38263;DHT22;24054;50.128;19.730;2022-09-09T03:11:53;23.30;88.50
38263;DHT22;24054;50.128;19.730;2022-09-09T03:14:21;23.50;89.30
38263;DHT22;24054;50.128;19.730;2022-09-09T03:16:50;23.40;67.90
38263;DHT22;24054;50.128;19.730;2022-09-09T03:19:18;23.40;89.00
38263;DHT22;24054;50.128;19.730;2022-09-09T03:21:45;23.40;67.90
38263;DHT22;24054;50.128;19.730;2022-09-09T03:24:12;23.50;88.60
38263;DHT22;24054;50.128;19.730;2022-09-09T03:26:40;23.40;67.90
38263;DHT22;24054;50.128;19.730;2022-09-09T03:29:07;23.30;89.20
38263;DHT22;24054;50.128;19.730;2022-09-09T03:31:34;23.50;89.10
38263;DHT22;24054;50.128;19.730;2022-09-09T03:34:01;23.10;88.50
38263;DHT22;24054;50.128;19.730;2022-09-09T03:36:29;23.40;89.50
38263;DHT22;24054;50.128;19.730;2022-09-09T03:38:57;23.50;89.60
38263;DHT22;24054;50.128;19.730;2022-09-09T03:41:24;23.30;89.80
38263;DHT22;24054;50.128;19.730;2022-09-09T03:43:52;23.40;90.00
38263;DHT22;24054;50.128;19.730;2022-09-09T03:46:19;23.30;90.00
38263;DHT22;24054;50.128;19.730;2022-09-09T03:48:46;23.20;90.00
38263;DHT22;24054;50.128;19.730;2022-09-09T03:51:13;23.40;90.60
38263;DHT22;24054;50.128;19.730;2022-09-09T03:53:42;23.50;90.60
38263;DHT22;24054;50.128;19.730;2022-09-09T03:56:09;23.30;67.80
38263;DHT22;24054;50.128;19.730;2022-09-09T03:58:37;23.30;90.40
38263;DHT22;24054;50.128;19.730;2022-09-09T04:01:06;23.40;90.20
38263;DHT22;24054;50.128;19.730;2022-09-09T04:03:34;23.10;90.40
38263;DHT22;24054;50.128;19.730;2022-09-09T04:06:03;23.30;67.80
38263;DHT22;24054;50.128;19.730;2022-09-09T04:08:30;23.30;67.80
38263;DHT22;24054;50.128;19.730;2022-09-09T04:11:00;23.40;90.20
38263;DHT22;24054;50.128;19.730;2022-09-09T04:13:31;23.30;67.80
38263;DHT22;24054;50.128;19.730;2022-09-09T04:15:58;23.30;67.80
38263;DHT22;24054;50.128;19.730;2022-09-09T04:18:27;23.30;67.80
38263;DHT22;24054;50.128;19.730;2022-09-09T04:20:55;23.30;67.80
38263;DHT22;24054;50.128;19.730;2022-09-09T04:23:23;23.30;67.80
38263;DHT22;24054;50.128;19.730;2022-09-09T04:25:52;23.30;67.80
38263;DHT22;24054;50.128;19.730;2022-09-09T04:28:22;23.30;67.80
38263;DHT22;24054;50.128;19.730;2022-09-09T04:30:49;23.30;67.80
38263;DHT22;24054;50.128;19.730;2022-09-09T04:33:16;23.30;67.70
38263;DHT22;24054;50.128;19.730;2022-09-09T04:35:45;23.30;67.70
38263;DHT22;24054;50.128;19.730;2022-09-09T04:38:13;23.30;67.70
38263;DHT22;24054;50.128;19.730;2022-09-09T04:40:42;23.30;67.70
38263;DHT22;24054;50.128;19.730;2022-09-09T04:43:09;23.30;67.70
38263;DHT22;24054;50.128;19.730;2022-09-09T04:45:38;23.30;67.70
38263;DHT22;24054;50.128;19.730;2022-09-09T04:48:06;23.30;67.70
38263;DHT22;24054;50.128;19.730;2022-09-09T04:50:33;23.30;67.70
38263;DHT22;24054;50.128;19.730;2022-09-09T04:53:00;23.30;67.70
38263;DHT22;24054;50.128;19.730;2022-09-09T04:55:28;23.30;67.70
38263;DHT22;24054;50.128;19.730;2022-09-09T04:57:55;23.20;67.60
38263;DHT22;24054;50.128;19.730;2022-09-09T05:00:23;23.20;67.60
38263;DHT22;24054;50.128;19.730;2022-09-09T05:02:51;23.30;67.70
38263;DHT22;24054;50.128;19.730;2022-09-09T05:05:19;23.30;67.70
38263;DHT22;24054;50.128;19.730;2022-09-09T05:07:45;23.30;67.70
38263;DHT22;24054;50.128;19.730;2022-09-09T05:10:13;23.30;67.70
38263;DHT22;24054;50.128;19.730;2022-09-09T05:12:42;23.30;67.60
38263;DHT22;24054;50.128;19.730;2022-09-09T05:15:09;23.30;67.60
38263;DHT22;24054;50.128;19.730;2022-09-09T05:17:37;23.30;85.80
38263;DHT22;24054;50.128;19.730;2022-09-09T05:20:06;23.30;67.50
38263;DHT22;24054;50.128;19.730;2022-09-09T05:22:33;23.30;67.50
38263;DHT22;24054;50.128;19.730;2022-09-09T05:25:00;23.30;67.40
38263;DHT22;24054;50.128;19.730;2022-09-09T05:27:27;23.30;67.40
38263;DHT22;24054;50.128;19.730;2022-09-09T05:29:57;23.30;86.80
38263;DHT22;24054;50.128;19.730;2022-09-09T05:32:24;23.30;67.30
38263;DHT22;24054;50.128;19.730;2022-09-09T05:34:51;23.30;82.90
38263;DHT22;24054;50.128;19.730;2022-09-09T05:37:19;23.30;67.30
38263;DHT22;24054;50.128;19.730;2022-09-09T05:39:46;23.40;83.40
38263;DHT22;24054;50.128;19.730;2022-09-09T05:42:13;23.30;67.30
38263;DHT22;24054;50.128;19.730;2022-09-09T05:44:40;23.40;67.40
38263;DHT22;24054;50.128;19.730;2022-09-09T05:47:08;23.40;67.40
38263;DHT22;24054;50.128;19.730;2022-09-09T05:49:35;23.40;67.50
38263;DHT22;24054;50.128;19.730;2022-09-09T05:52:02;23.40;67.60
38263;DHT22;24054;50.128;19.730;2022-09-09T05:54:31;23.40;67.60
38263;DHT22;24054;50.128;19.730;2022-09-09T05:57:01;23.10;90.10
38263;DHT22;24054;50.128;19.730;2022-09-09T05:59:28;23.40;68.10
38263;DHT22;24054;50.128;19.730;2022-09-09T06:01:55;23.70;72.60
38263;DHT22;24054;50.128;19.730;2022-09-09T06:04:22;23.50;68.60
38263;DHT22;24054;50.128;19.730;2022-09-09T06:06:50;23.50;68.70
38263;DHT22;24054;50.128;19.730;2022-09-09T06:09:17;23.50;69.00
38263;DHT22;24054;50.128;19.730;2022-09-09T06:11:45;23.40;92.40
38263;DHT22;24054;50.128;19.730;2022-09-09T06:14:12;23.50;68.80
38263;DHT22;24054;50.128;19.730;2022-09-09T06:16:40;23.50;68.60
38263;DHT22;24054;50.128;19.730;2022-09-09T06:19:09;23.50;68.70
38263;DHT22;24054;50.128;19.730;2022-09-09T06:21:37;23.60;68.90
38263;DHT22;24054;50.128;19.730;2022-09-09T06:24:08;23.60;69.00
38263;DHT22;24054;50.128;19.730;2022-09-09T06:26:37;23.60;68.80
38263;DHT22;24054;50.128;19.730;2022-09-09T06:29:08;23.60;68.90
38263;DHT22;24054;50.128;19.730;2022-09-09T06:31:36;23.60;69.10
38263;DHT22;24054;50.128;19.730;2022-09-09T06:34:05;23.40;91.10
38263;DHT22;24054;50.128;19.730;2022-09-09T06:36:33;23.60;69.40
38263;DHT22;24054;50.128;19.730;2022-09-09T06:39:01;23.70;69.20
38263;DHT22;24054;50.128;19.730;2022-09-09T06:41:30;23.70;69.10
38263;DHT22;24054;50.128;19.730;2022-09-09T06:43:58;23.70;69.10
38263;DHT22;24054;50.128;19.730;2022-09-09T06:46:29;23.70;88.80
38263;DHT22;24054;50.128;19.730;2022-09-09T06:49:00;23.70;69.00
38263;DHT22;24054;50.128;19.730;2022-09-09T06:51:29;23.70;68.90
38263;DHT22;24054;50.128;19.730;2022-09-09T06:53:58;23.70;69.00
38263;DHT22;24054;50.128;19.730;2022-09-09T06:56:26;23.70;69.60
38263;DHT22;24054;50.128;19.730;2022-09-09T06:58:54;23.70;69.70
38263;DHT22;24054;50.128;19.730;2022-09-09T07:01:23;23.70;69.40
38263;DHT22;24054;50.128;19.730;2022-09-09T07:03:52;23.90;83.40
38263;DHT22;24054;50.128;19.730;2022-09-09T07:06:21;23.80;68.90
38263;DHT22;24054;50.128;19.730;2022-09-09T07:08:50;23.80;68.90
38263;DHT22;24054;50.128;19.730;2022-09-09T07:11:19;23.80;68.70
38263;DHT22;24054;50.128;19.730;2022-09-09T07:13:46;23.80;68.60
38263;DHT22;24054;50.128;19.730;2022-09-09T07:16:15;23.90;68.50
38263;DHT22;24054;50.128;19.730;2022-09-09T07:18:43;23.90;68.30
38263;DHT22;24054;50.128;19.730;2022-09-09T07:21:13;23.90;68.30
38263;DHT22;24054;50.128;19.730;2022-09-09T07:23:40;23.90;68.10
38263;DHT22;24054;50.128;19.730;2022-09-09T07:26:09;23.90;67.90
38263;DHT22;24054;50.128;19.730;2022-09-09T07:28:36;23.90;67.70
38263;DHT22;24054;50.128;19.730;2022-09-09T07:31:05;24.00;67.90
38263;DHT22;24054;50.128;19.730;2022-09-09T07:33:34;24.00;67.70
38263;DHT22;24054;50.128;19.730;2022-09-09T07:36:05;24.10;67.80
38263;DHT22;24054;50.128;19.730;2022-09-09T07:38:38;24.10;67.80
38263;DHT22;24054;50.128;19.730;2022-09-09T07:41:07;24.10;67.70
38263;DHT22;24054;50.128;19.730;2022-09-09T07:43:37;24.10;67.60
38263;DHT22;24054;50.128;19.730;2022-09-09T07:46:05;24.10;67.50
38263;DHT22;24054;50.128;19.730;2022-09-09T07:48:33;24.20;67.20
38263;DHT22;24054;50.128;19.730;2022-09-09T07:51:06;24.20;67.10
38263;DHT22;24054;50.128;19.730;2022-09-09T07:53:35;24.20;67.00
38263;DHT22;24054;50.128;19.730;2022-09-09T07:56:05;24.30;66.90
38263;DHT22;24054;50.128;19.730;2022-09-09T07:58:32;24.30;66.70
38263;DHT22;24054;50.128;19.730;2022-09-09T08:00:59;24.30;66.60
38263;DHT22;24054;50.128;19.730;2022-09-09T08:03:26;24.30;66.40
38263;DHT22;24054;50.128;19.730;2022-09-09T08:06:00;24.30;66.20
38263;DHT22;24054;50.128;19.730;2022-09-09T08:08:28;24.40;66.10
38263;DHT22;24054;50.128;19.730;2022-09-09T08:11:03;24.40;65.90
38263;DHT22;24054;50.128;19.730;2022-09-09T08:13:30;24.40;65.80
38263;DHT22;24054;50.128;19.730;2022-09-09T08:16:05;24.40;65.70
38263;DHT22;24054;50.128;19.730;2022-09-09T08:18:32;24.50;65.70
38263;DHT22;24054;50.128;19.730;2022-09-09T08:21:05;24.50;65.50
38263;DHT22;24054;50.128;19.730;2022-09-09T08:23:34;24.50;65.50
38263;DHT22;24054;50.128;19.730;2022-09-09T08:26:07;24.50;65.40
38263;DHT22;24054;50.128;19.730;2022-09-09T08:28:34;24.50;65.30
38263;DHT22;24054;50.128;19.730;2022-09-09T08:31:09;24.60;65.10
38263;DHT22;24054;50.128;19.730;2022-09-09T08:33:38;24.60;65.00
38263;DHT22;24054;50.128;19.730;2022-09-09T08:36:09;24.60;64.90
38263;DHT22;24054;50.128;19.730;2022-09-09T08:38:36;24.70;64.80
38263;DHT22;24054;50.128;19.730;2022-09-09T08:44:07;24.70;64.70
38263;DHT22;24054;50.128;19.730;2022-09-09T08:46:42;24.70;64.70
38263;DHT22;24054;50.128;19.730;2022-09-09T08:49:20;24.70;64.50
38263;DHT22;24054;50.128;19.730;2022-09-09T08:51:53;24.70;64.40
38263;DHT22;24054;50.128;19.730;2022-09-09T08:54:22;24.70;64.30
38263;DHT22;24054;50.128;19.730;2022-09-09T08:56:51;24.70;64.00
38263;DHT22;24054;50.128;19.730;2022-09-09T08:59:18;24.80;63.60
38263;DHT22;24054;50.128;19.730;2022-09-09T09:01:58;24.80;63.30
38263;DHT22;24054;50.128;19.730;2022-09-09T09:04:46;24.80;62.80
38263;DHT22;24054;50.128;19.730;2022-09-09T09:07:26;24.80;62.20
38263;DHT22;24054;50.128;19.730;2022-09-09T09:10:02;24.90;62.20
38263;DHT22;24054;50.128;19.730;2022-09-09T09:12:38;24.80;61.40
38263;DHT22;24054;50.128;19.730;2022-09-09T09:15:14;24.90;61.70
38263;DHT22;24054;50.128;19.730;2022-09-09T09:17:45;24.90;61.80
38263;DHT22;24054;50.128;19.730;2022-09-09T09:20:13;24.90;62.60
38263;DHT22;24054;50.128;19.730;2022-09-09T09:22:47;25.00;62.00
38263;DHT22;24054;50.128;19.730;2022-09-09T09:25:17;24.90;61.90
38263;DHT22;24054;50.128;19.730;2022-09-09T09:27:52;24.90;62.20
38263;DHT22;24054;50.128;19.730;2022-09-09T09:30:34;24.90;62.60
38263;DHT22;24054;50.128;19.730;2022-09-09T09:33:05;24.90;62.40
38263;DHT22;24054;50.128;19.730;2022-09-09T09:35:33;25.00;62.50
38263;DHT22;24054;50.128;19.730;2022-09-09T09:38:00;25.10;62.40
38263;DHT22;24054;50.128;19.730;2022-09-09T09:40:28;25.10;62.40
38263;DHT22;24054;50.128;19.730;2022-09-09T09:43:00;25.20;62.30
38263;DHT22;24054;50.128;19.730;2022-09-09T09:45:33;25.20;62.10
38263;DHT22;24054;50.128;19.730;2022-09-09T09:48:03;25.20;61.90
38263;DHT22;24054;50.128;19.730;2022-09-09T09:50:31;25.30;61.80
38263;DHT22;24054;50.128;19.730;2022-09-09T09:52:59;25.30;61.70
38263;DHT22;24054;50.128;19.730;2022-09-09T09:55:28;25.30;61.60
38263;DHT22;24054;50.128;19.730;2022-09-09T09:58:03;25.40;61.50
38263;DHT22;24054;50.128;19.730;2022-09-09T10:00:31;25.50;61.30
38263;DHT22;24054;50.128;19.730;2022-09-09T10:03:00;25.50;61.90
38263;DHT22;24054;50.128;19.730;2022-09-09T10:05:29;25.50;61.10
38263;DHT22;24054;50.128;19.730;2022-09-09T10:08:04;25.50;61.00
38263;DHT22;24054;50.128;19.730;2022-09-09T10:10:42;25.50;60.80
38263;DHT22;24054;50.128;19.730;2022-09-09T10:13:17;25.60;60.70
38263;DHT22;24054;50.128;19.730;2022-09-09T10:15:54;25.60;60.60
38263;DHT22;24054;50.128;19.730;2022-09-09T10:18:36;25.60;60.40
38263;DHT22;24054;50.128;19.730;2022-09-09T10:21:19;25.60;60.40
38263;DHT22;24054;50.128;19.730;2022-09-09T10:24:02;25.50;60.20
38263;DHT22;24054;50.128;19.730;2022-09-09T10:26:40;25.30;79.50
38263;DHT22;24054;50.128;19.730;2022-09-09T10:29:29;25.60;59.90
38263;DHT22;24054;50.128;19.730;2022-09-09T10:32:07;25.70;60.00
38263;DHT22;24054;50.128;19.730;2022-09-09T10:34:57;25.70;59.70
38263;DHT22;24054;50.128;19.730;2022-09-09T10:37:37;25.70;59.40
38263;DHT22;24054;50.128;19.730;2022-09-09T10:40:19;25.70;59.10
38263;DHT22;24054;50.128;19.730;2022-09-09T10:42:47;25.80;58.50
38263;DHT22;24054;50.128;19.730;2022-09-09T10:45:20;25.80;58.40
38263;DHT22;24054;50.128;19.730;2022-09-09T10:48:03;25.80;58.30
38263;DHT22;24054;50.128;19.730;2022-09-09T10:50:45;25.90;57.60
38263;DHT22;24054;50.128;19.730;2022-09-09T10:53:24;25.90;57.00
38263;DHT22;24054;50.128;19.730;2022-09-09T10:56:01;25.90;56.30
38263;DHT22;24054;50.128;19.730;2022-09-09T10:58:32;25.90;56.40
38263;DHT22;24054;50.128;19.730;2022-09-09T11:01:09;25.90;56.50
38263;DHT22;24054;50.128;19.730;2022-09-09T11:03:39;25.90;56.90
38263;DHT22;24054;50.128;19.730;2022-09-09T11:06:11;25.90;56.80
38263;DHT22;24054;50.128;19.730;2022-09-09T11:08:40;25.90;57.10
38263;DHT22;24054;50.128;19.730;2022-09-09T11:11:12;26.00;57.40
38263;DHT22;24054;50.128;19.730;2022-09-09T11:13:45;26.00;57.30
38263;DHT22;24054;50.128;19.730;2022-09-09T11:16:24;26.00;57.20
38263;DHT22;24054;50.128;19.730;2022-09-09T11:18:58;26.10;57.10
38263;DHT22;24054;50.128;19.730;2022-09-09T11:21:30;26.10;57.10
38263;DHT22;24054;50.128;19.730;2022-09-09T11:24:02;26.50;57.50
38263;DHT22;24054;50.128;19.730;2022-09-09T11:26:34;26.20;57.10
38263;DHT22;24054;50.128;19.730;2022-09-09T11:29:38;26.30;57.20
38263;DHT22;24054;50.128;19.730;2022-09-09T11:32:22;26.30;57.20
38263;DHT22;24054;50.128;19.730;2022-09-09T11:34:59;26.30;57.00
38263;DHT22;24054;50.128;19.730;2022-09-09T11:37:42;26.40;57.10
38263;DHT22;24054;50.128;19.730;2022-09-09T11:40:20;26.40;57.00
38263;DHT22;24054;50.128;19.730;2022-09-09T11:42:49;26.40;56.90
38263;DHT22;24054;50.128;19.730;2022-09-09T11:45:28;26.40;57.10
38263;DHT22;24054;50.128;19.730;2022-09-09T11:47:58;26.40;57.00
38263;DHT22;24054;50.128;19.730;2022-09-09T11:50:34;26.40;57.00
38263;DHT22;24054;50.128;19.730;2022-09-09T11:53:18;26.40;56.90
38263;DHT22;24054;50.128;19.730;2022-09-09T11:55:59;26.40;56.80
38263;DHT22;24054;50.128;19.730;2022-09-09T11:58:28;26.40;57.00
38263;DHT22;24054;50.128;19.730;2022-09-09T12:00:59;26.40;56.90
38263;DHT22;24054;50.128;19.730;2022-09-09T12:03:41;26.40;56.90
38263;DHT22;24054;50.128;19.730;2022-09-09T12:06:15;26.40;56.60
38263;DHT22;24054;50.128;19.730;2022-09-09T12:08:47;26.40;56.20
38263;DHT22;24054;50.128;19.730;2022-09-09T12:11:25;26.30;56.10
38263;DHT22;24054;50.128;19.730;2022-09-09T12:13:53;26.30;55.90
38263;DHT22;24054;50.128;19.730;2022-09-09T12:16:29;26.20;55.90
38263;DHT22;24054;50.128;19.730;2022-09-09T12:19:16;26.10;55.80
38263;DHT22;24054;50.128;19.730;2022-09-09T12:21:49;26.10;56.00
38263;DHT22;24054;50.128;19.730;2022-09-09T12:24:25;26.10;56.10
38263;DHT22;24054;50.128;19.730;2022-09-09T12:26:58;26.00;56.30
38263;DHT22;24054;50.128;19.730;2022-09-09T12:29:33;26.00;56.40
38263;DHT22;24054;50.128;19.730;2022-09-09T12:32:07;26.00;56.70
38263;DHT22;24054;50.128;19.730;2022-09-09T12:34:40;25.90;56.90
38263;DHT22;24054;50.128;19.730;2022-09-09T12:37:15;25.90;57.10
38263;DHT22;24054;50.128;19.730;2022-09-09T12:39:47;25.90;57.30
38263;DHT22;24054;50.128;19.730;2022-09-09T12:42:18;25.90;57.20
38263;DHT22;24054;50.128;19.730;2022-09-09T12:44:54;25.90;57.40
38263;DHT22;24054;50.128;19.730;2022-09-09T12:47:26;25.80;57.40
38263;DHT22;24054;50.128;19.730;2022-09-09T12:49:56;25.80;57.50
38263;DHT22;24054;50.128;19.730;2022-09-09T12:52:30;25.80;57.60
38263;DHT22;24054;50.128;19.730;2022-09-09T12:55:01;25.80;57.70
38263;DHT22;24054;50.128;19.730;2022-09-09T12:57:34;25.80;57.70
38263;DHT22;24054;50.128;19.730;2022-09-09T13:00:07;25.70;57.60
38263;DHT22;24054;50.128;19.730;2022-09-09T13:02:46;25.70;57.50
38263;DHT22;24054;50.128;19.730;2022-09-09T13:05:21;25.70;57.30
38263;DHT22;24054;50.128;19.730;2022-09-09T13:07:49;25.70;57.00
38263;DHT22;24054;50.128;19.730;2022-09-09T13:10:23;25.60;57.00
38263;DHT22;24054;50.128;19.730;2022-09-09T13:12:53;25.60;56.80
38263;DHT22;24054;50.128;19.730;2022-09-09T13:15:22;25.60;56.30
38263;DHT22;24054;50.128;19.730;2022-09-09T13:17:54;25.50;55.80
38263;DHT22;24054;50.128;19.730;2022-09-09T13:20:25;25.50;57.20
38263;DHT22;24054;50.128;19.730;2022-09-09T13:22:54;25.50;55.80
38263;DHT22;24054;50.128;19.730;2022-09-09T13:25:24;25.50;55.70
38263;DHT22;24054;50.128;19.730;2022-09-09T13:27:55;25.50;55.80
38263;DHT22;24054;50.128;19.730;2022-09-09T13:30:28;25.50;56.00
38263;DHT22;24054;50.128;19.730;2022-09-09T13:33:05;25.50;56.20
38263;DHT22;24054;50.128;19.730;2022-09-09T13:35:46;25.50;55.90
38263;DHT22;24054;50.128;19.730;2022-09-09T13:38:16;25.40;55.40
38263;DHT22;24054;50.128;19.730;2022-09-09T13:40:56;25.40;55.50
38263;DHT22;24054;50.128;19.730;2022-09-09T13:43:26;25.40;55.30
38263;DHT22;24054;50.128;19.730;2022-09-09T13:45:55;25.30;55.00
38263;DHT22;24054;50.128;19.730;2022-09-09T13:48:24;25.20;73.40
38263;DHT22;24054;50.128;19.730;2022-09-09T13:51:04;25.30;55.60
38263;DHT22;24054;50.128;19.730;2022-09-09T13:53:31;25.20;75.90
38263;DHT22;24054;50.128;19.730;2022-09-09T13:55:59;25.20;54.90
38263;DHT22;24054;50.128;19.730;2022-09-09T13:58:26;25.30;77.00
38263;DHT22;24054;50.128;19.730;2022-09-09T14:00:54;25.10;76.70
38263;DHT22;24054;50.128;19.730;2022-09-09T14:03:22;25.20;55.20
38263;DHT22;24054;50.128;19.730;2022-09-09T14:05:51;25.20;55.00
38263;DHT22;24054;50.128;19.730;2022-09-09T14:08:26;25.20;55.00
38263;DHT22;24054;50.128;19.730;2022-09-09T14:11:02;25.20;61.80
38263;DHT22;24054;50.128;19.730;2022-09-09T14:13:30;25.30;55.20
38263;DHT22;24054;50.128;19.730;2022-09-09T14:15:59;25.10;55.00
38263;DHT22;24054;50.128;19.730;2022-09-09T14:18:30;25.10;55.50
38263;DHT22;24054;50.128;19.730;2022-09-09T14:20:59;24.70;76.90
38263;DHT22;24054;50.128;19.730;2022-09-09T14:23:30;25.10;55.60
38263;DHT22;24054;50.128;19.730;2022-09-09T14:25:58;25.10;75.30
38263;DHT22;24054;50.128;19.730;2022-09-09T14:33:22;25.00;54.90
38263;DHT22;24054;50.128;19.730;2022-09-09T14:35:56;25.00;76.90
38263;DHT22;24054;50.128;19.730;2022-09-09T14:38:25;25.00;77.40
38263;DHT22;24054;50.128;19.730;2022-09-09T14:40:54;25.00;77.70
38263;DHT22;24054;50.128;19.730;2022-09-09T14:43:21;24.90;77.20
38263;DHT22;24054;50.128;19.730;2022-09-09T14:45:49;25.10;76.10
38263;DHT22;24054;50.128;19.730;2022-09-09T14:48:17;24.80;76.40
38263;DHT22;24054;50.128;19.730;2022-09-09T14:50:47;25.00;79.30
38263;DHT22;24054;50.128;19.730;2022-09-09T14:53:16;24.90;79.30
38263;DHT22;24054;50.128;19.730;2022-09-09T14:55:45;24.80;78.50
38263;DHT22;24054;50.128;19.730;2022-09-09T14:58:15;24.90;55.30
38263;DHT22;24054;50.128;19.730;2022-09-09T15:00:43;24.60;79.80
38263;DHT22;24054;50.128;19.730;2022-09-09T15:03:11;24.80;55.60
38263;DHT22;24054;50.128;19.730;2022-09-09T15:05:40;25.10;80.00
38263;DHT22;24054;50.128;19.730;2022-09-09T15:08:08;24.80;55.70
38263;DHT22;24054;50.128;19.730;2022-09-09T15:10:36;24.80;55.90
38263;DHT22;24054;50.128;19.730;2022-09-09T15:13:04;24.80;56.10
38263;DHT22;24054;50.128;19.730;2022-09-09T15:15:33;24.80;56.20
38263;DHT22;24054;50.128;19.730;2022-09-09T15:18:01;24.80;56.30
38263;DHT22;24054;50.128;19.730;2022-09-09T15:20:29;24.80;56.40
38263;DHT22;24054;50.128;19.730;2022-09-09T15:22:56;24.80;56.50
38263;DHT22;24054;50.128;19.730;2022-09-09T15:25:24;24.80;56.50
38263;DHT22;24054;50.128;19.730;2022-09-09T15:27:51;24.80;56.60
38263;DHT22;24054;50.128;19.730;2022-09-09T15:30:19;24.70;56.50
38263;DHT22;24054;50.128;19.730;2022-09-09T15:32:47;24.80;78.20
38263;DHT22;24054;50.128;19.730;2022-09-09T15:35:14;24.70;56.80
38263;DHT22;24054;50.128;19.730;2022-09-09T15:37:42;24.70;57.00
38263;DHT22;24054;50.128;19.730;2022-09-09T15:40:10;24.60;78.10
38263;DHT22;24054;50.128;19.730;2022-09-09T15:42:37;24.60;77.50
38263;DHT22;24054;50.128;19.730;2022-09-09T15:45:07;24.70;75.70
38263;DHT22;24054;50.128;19.730;2022-09-09T15:47:35;24.60;77.60